GLO1630 SBRJ-SBVT
Flight info
| Callsign | GLO1630 |
|---|---|
| Flight time | 0h 48m |
| Altitude | 31000 |
| Route | TISVA UL206 TODET |
| Aircraft | B738/M-SDE2E3FGHIRWXY/LB1 |
Departure
| Time | 2026-05-04 16:55 |
|---|---|
| Airport | Santos Dumont Airport (SBRJ) |
Arrival
| Time | 2026-05-04 17:43 |
|---|---|
| Airport | Eurico de Aguiar Salles International Airport (SBVT) |
| Time | Latitude | Longitude | Altitude | Speed | Heading |
|---|---|---|---|---|---|
| 2026-05-04 16:31 | -22.91281 | -43.16576 | 21 ft | 0 kts | 268° |
| 2026-05-04 16:46 | -22.91280 | -43.16541 | 25 ft | 2 kts | 268° |
| 2026-05-04 16:46 | -22.91287 | -43.16508 | 22 ft | 2 kts | 344° |
| 2026-05-04 16:47 | -22.91299 | -43.16506 | 23 ft | 0 kts | 356° |
| 2026-05-04 16:49 | -22.91291 | -43.16507 | 22 ft | 5 kts | 356° |
| 2026-05-04 16:50 | -22.91120 | -43.16522 | 21 ft | 13 kts | 346° |
| 2026-05-04 16:50 | -22.90942 | -43.16543 | 21 ft | 13 kts | 356° |
| 2026-05-04 16:51 | -22.90773 | -43.16541 | 21 ft | 12 kts | 357° |
| 2026-05-04 16:51 | -22.90691 | -43.16546 | 21 ft | 12 kts | 356° |
| 2026-05-04 16:51 | -22.90535 | -43.16556 | 21 ft | 10 kts | 359° |
| 2026-05-04 16:52 | -22.90497 | -43.16498 | 21 ft | 0 kts | 85° |
| 2026-05-04 16:53 | -22.90470 | -43.16343 | 25 ft | 9 kts | 79° |
| 2026-05-04 16:53 | -22.90902 | -43.16292 | 22 ft | 101 kts | 176° |
| 2026-05-04 16:54 | -22.91496 | -43.16238 | 96 ft | 146 kts | 172° |
| 2026-05-04 16:55 | -22.95436 | -43.13166 | 2400 ft | 225 kts | 141° |
| 2026-05-04 16:55 | -22.97975 | -43.10741 | 3344 ft | 257 kts | 141° |
| 2026-05-04 16:56 | -23.00708 | -43.08162 | 5119 ft | 266 kts | 141° |
| 2026-05-04 16:56 | -23.01876 | -43.02460 | 7556 ft | 294 kts | 65° |
| 2026-05-04 16:57 | -23.00904 | -43.00488 | 8421 ft | 296 kts | 59° |
| 2026-05-04 16:57 | -22.98704 | -42.96628 | 10127 ft | 304 kts | 57° |
| 2026-05-04 16:58 | -22.95067 | -42.90284 | 11438 ft | 354 kts | 58° |
| 2026-05-04 16:58 | -22.93780 | -42.88005 | 12187 ft | 358 kts | 58° |
| 2026-05-04 16:59 | -22.91162 | -42.83344 | 13617 ft | 367 kts | 58° |
| 2026-05-04 17:00 | -22.85700 | -42.73593 | 16010 ft | 389 kts | 58° |
| 2026-05-04 17:00 | -22.81399 | -42.65927 | 17718 ft | 404 kts | 57° |
| 2026-05-04 17:01 | -22.78453 | -42.60680 | 18781 ft | 412 kts | 56° |
| 2026-05-04 17:01 | -22.75440 | -42.55321 | 19761 ft | 420 kts | 56° |
| 2026-05-04 17:02 | -22.72378 | -42.49879 | 20768 ft | 427 kts | 56° |
| 2026-05-04 17:02 | -22.69264 | -42.44351 | 21764 ft | 433 kts | 56° |
| 2026-05-04 17:03 | -22.67677 | -42.41535 | 22244 ft | 437 kts | 56° |
| 2026-05-04 17:03 | -22.66085 | -42.38712 | 22705 ft | 441 kts | 55° |
| 2026-05-04 17:03 | -22.62869 | -42.33012 | 23620 ft | 448 kts | 55° |
| 2026-05-04 17:04 | -22.59584 | -42.27229 | 24416 ft | 453 kts | 52° |
| 2026-05-04 17:04 | -22.55388 | -42.22205 | 25172 ft | 449 kts | 35° |
| 2026-05-04 17:05 | -22.50555 | -42.17927 | 25939 ft | 453 kts | 33° |
| 2026-05-04 17:05 | -22.45628 | -42.13591 | 26686 ft | 459 kts | 34° |
| 2026-05-04 17:06 | -22.40689 | -42.09181 | 27429 ft | 464 kts | 34° |
| 2026-05-04 17:06 | -22.38211 | -42.06955 | 27874 ft | 464 kts | 34° |
| 2026-05-04 17:07 | -22.33276 | -42.02515 | 28924 ft | 460 kts | 33° |
| 2026-05-04 17:07 | -22.31641 | -42.01047 | 29252 ft | 459 kts | 33° |
| 2026-05-04 17:07 | -22.28361 | -41.98105 | 29747 ft | 460 kts | 33° |
| 2026-05-04 17:07 | -22.25904 | -41.95902 | 30172 ft | 460 kts | 33° |
| 2026-05-04 17:08 | -22.23421 | -41.93678 | 30630 ft | 458 kts | 33° |
| 2026-05-04 17:08 | -22.18524 | -41.89295 | 31184 ft | 460 kts | 33° |
| 2026-05-04 17:09 | -22.13601 | -41.84891 | 31205 ft | 458 kts | 33° |
| 2026-05-04 17:09 | -22.08729 | -41.80527 | 31193 ft | 456 kts | 33° |
| 2026-05-04 17:10 | -21.96532 | -41.69604 | 31187 ft | 458 kts | 33° |
| 2026-05-04 17:11 | -21.91643 | -41.65241 | 31189 ft | 458 kts | 33° |
| 2026-05-04 17:12 | -21.84305 | -41.58713 | 31187 ft | 455 kts | 33° |
| 2026-05-04 17:13 | -21.72107 | -41.47874 | 31188 ft | 453 kts | 33° |
| 2026-05-04 17:14 | -21.62367 | -41.39239 | 31181 ft | 453 kts | 33° |
| 2026-05-04 17:15 | -21.55091 | -41.32826 | 31164 ft | 445 kts | 33° |
| 2026-05-04 17:16 | -21.45642 | -41.24491 | 31012 ft | 440 kts | 33° |
| 2026-05-04 17:16 | -21.38679 | -41.18312 | 29959 ft | 429 kts | 33° |
| 2026-05-04 17:17 | -21.36390 | -41.16284 | 29536 ft | 426 kts | 33° |
| 2026-05-04 17:17 | -21.29609 | -41.10290 | 28343 ft | 417 kts | 33° |
| 2026-05-04 17:18 | -21.27348 | -41.08300 | 27953 ft | 414 kts | 33° |
| 2026-05-04 17:18 | -21.22952 | -41.04437 | 27194 ft | 409 kts | 34° |
| 2026-05-04 17:19 | -21.18574 | -41.00592 | 26431 ft | 404 kts | 34° |
| 2026-05-04 17:19 | -21.14245 | -40.96791 | 25660 ft | 401 kts | 34° |
| 2026-05-04 17:20 | -21.09937 | -40.93011 | 24882 ft | 399 kts | 34° |
| 2026-05-04 17:20 | -21.05651 | -40.89254 | 24114 ft | 397 kts | 34° |
| 2026-05-04 17:20 | -21.03530 | -40.87396 | 23716 ft | 396 kts | 35° |
| 2026-05-04 17:21 | -20.99283 | -40.83676 | 22870 ft | 392 kts | 35° |
| 2026-05-04 17:21 | -20.95097 | -40.80011 | 22111 ft | 387 kts | 35° |
| 2026-05-04 17:22 | -20.93004 | -40.78179 | 21733 ft | 384 kts | 35° |
| 2026-05-04 17:22 | -20.90957 | -40.76389 | 21368 ft | 382 kts | 36° |
| 2026-05-04 17:23 | -20.86786 | -40.72742 | 20621 ft | 377 kts | 36° |
| 2026-05-04 17:23 | -20.84763 | -40.70975 | 20261 ft | 375 kts | 36° |
| 2026-05-04 17:23 | -20.80741 | -40.67523 | 19517 ft | 369 kts | 30° |
| 2026-05-04 17:24 | -20.78479 | -40.66326 | 19183 ft | 362 kts | 19° |
| 2026-05-04 17:24 | -20.71489 | -40.63341 | 18044 ft | 358 kts | 19° |
| 2026-05-04 17:25 | -20.69202 | -40.62359 | 17671 ft | 355 kts | 19° |
| 2026-05-04 17:25 | -20.64662 | -40.60385 | 16942 ft | 350 kts | 19° |
| 2026-05-04 17:26 | -20.60193 | -40.58423 | 16233 ft | 345 kts | 20° |
| 2026-05-04 17:26 | -20.53585 | -40.55519 | 15196 ft | 339 kts | 20° |
| 2026-05-04 17:27 | -20.49239 | -40.53610 | 14488 ft | 337 kts | 20° |
| 2026-05-04 17:27 | -20.44931 | -40.51718 | 13760 ft | 334 kts | 20° |
| 2026-05-04 17:28 | -20.40673 | -40.49849 | 13032 ft | 330 kts | 21° |
| 2026-05-04 17:29 | -20.34327 | -40.47160 | 11885 ft | 326 kts | 14° |
| 2026-05-04 17:29 | -20.28025 | -40.45654 | 11545 ft | 291 kts | 11° |
| 2026-05-04 17:30 | -20.22416 | -40.44286 | 11305 ft | 261 kts | 12° |
| 2026-05-04 17:31 | -20.19040 | -40.43444 | 11123 ft | 234 kts | 12° |
| 2026-05-04 17:31 | -20.14369 | -40.42281 | 10199 ft | 227 kts | 13° |
| 2026-05-04 17:32 | -20.11293 | -40.41514 | 9530 ft | 226 kts | 13° |
| 2026-05-04 17:33 | -20.08655 | -40.38187 | 8894 ft | 199 kts | 74° |
| 2026-05-04 17:33 | -20.08246 | -40.36781 | 8579 ft | 198 kts | 75° |
| 2026-05-04 17:34 | -20.07000 | -40.32570 | 7638 ft | 198 kts | 75° |
| 2026-05-04 17:34 | -20.06585 | -40.31192 | 7351 ft | 197 kts | 74° |
| 2026-05-04 17:35 | -20.05970 | -40.27217 | 6324 ft | 175 kts | 124° |
| 2026-05-04 17:35 | -20.07132 | -40.25100 | 5770 ft | 150 kts | 124° |
| 2026-05-04 17:35 | -20.07627 | -40.24178 | 5348 ft | 145 kts | 125° |
| 2026-05-04 17:36 | -20.08132 | -40.23245 | 4881 ft | 144 kts | 126° |
| 2026-05-04 17:36 | -20.08625 | -40.22334 | 4431 ft | 139 kts | 127° |
| 2026-05-04 17:36 | -20.09100 | -40.21458 | 4069 ft | 130 kts | 126° |
| 2026-05-04 17:36 | -20.09555 | -40.20620 | 3930 ft | 138 kts | 127° |
| 2026-05-04 17:37 | -20.10040 | -40.19730 | 3747 ft | 140 kts | 126° |
| 2026-05-04 17:37 | -20.10521 | -40.18841 | 3583 ft | 138 kts | 127° |
| 2026-05-04 17:37 | -20.11010 | -40.17973 | 3447 ft | 136 kts | 134° |
| 2026-05-04 17:37 | -20.11803 | -40.17634 | 3322 ft | 127 kts | 190° |
| 2026-05-04 17:38 | -20.12587 | -40.18062 | 3274 ft | 130 kts | 226° |
| 2026-05-04 17:38 | -20.13075 | -40.18892 | 3174 ft | 138 kts | 230° |
| 2026-05-04 17:38 | -20.13662 | -40.19762 | 2803 ft | 144 kts | 229° |
| 2026-05-04 17:38 | -20.14180 | -40.20649 | 2575 ft | 137 kts | 233° |
| 2026-05-04 17:39 | -20.15093 | -40.22366 | 2128 ft | 131 kts | 233° |
| 2026-05-04 17:39 | -20.15533 | -40.23197 | 2054 ft | 130 kts | 234° |
| 2026-05-04 17:39 | -20.15978 | -40.24038 | 1890 ft | 129 kts | 235° |
| 2026-05-04 17:40 | -20.16422 | -40.24877 | 1802 ft | 133 kts | 235° |
| 2026-05-04 17:40 | -20.16876 | -40.25733 | 1668 ft | 131 kts | 236° |
| 2026-05-04 17:40 | -20.17346 | -40.26581 | 1580 ft | 135 kts | 231° |
| 2026-05-04 17:40 | -20.17919 | -40.27396 | 1455 ft | 138 kts | 221° |
| 2026-05-04 17:41 | -20.18658 | -40.28000 | 1298 ft | 130 kts | 205° |
| 2026-05-04 17:41 | -20.19482 | -40.28342 | 1142 ft | 128 kts | 195° |
| 2026-05-04 17:41 | -20.20355 | -40.28595 | 962 ft | 132 kts | 191° |
| 2026-05-04 17:41 | -20.21293 | -40.28642 | 796 ft | 139 kts | 176° |
| 2026-05-04 17:42 | -20.22264 | -40.28505 | 572 ft | 138 kts | 171° |
| 2026-05-04 17:42 | -20.23159 | -40.28372 | 369 ft | 127 kts | 173° |
| 2026-05-04 17:42 | -20.23724 | -40.28281 | 255 ft | 120 kts | 171° |
| 2026-05-04 17:42 | -20.24559 | -40.28149 | 89 ft | 120 kts | 173° |
| 2026-05-04 17:43 | -20.25593 | -40.27996 | 36 ft | 92 kts | 172° |
| 2026-05-04 17:43 | -20.25947 | -40.27944 | 37 ft | 53 kts | 172° |
| 2026-05-04 17:43 | -20.26233 | -40.27900 | 37 ft | 34 kts | 172° |
| 2026-05-04 17:43 | -20.26497 | -40.27884 | 36 ft | 26 kts | 190° |
| 2026-05-04 17:44 | -20.26592 | -40.27909 | 37 ft | 9 kts | 220° |
| 2026-05-04 17:44 | -20.26611 | -40.27969 | 34 ft | 9 kts | 265° |
| 2026-05-04 17:44 | -20.26575 | -40.28030 | 34 ft | 10 kts | 341° |
| 2026-05-04 17:44 | -20.26517 | -40.28038 | 32 ft | 8 kts | 352° |
| 2026-05-04 17:45 | -20.26480 | -40.28057 | 34 ft | 6 kts | 301° |
| 2026-05-04 17:45 | -20.26485 | -40.28098 | 34 ft | 5 kts | 259° |
| 2026-05-04 17:45 | -20.26491 | -40.28137 | 34 ft | 5 kts | 261° |
| 2026-05-04 17:45 | -20.26496 | -40.28165 | 34 ft | 2 kts | 261° |
| 2026-05-04 17:46 | -20.26497 | -40.28173 | 34 ft | 1 kts | 261° |
| 2026-05-04 17:46 | -20.26497 | -40.28174 | 34 ft | 0 kts | 261° |